createdAt,value
2019-04-07T00:00:19.083Z,98785.77
2019-04-07T00:02:48.527Z,98782.83
2019-04-07T00:05:18.366Z,98787.51
2019-04-07T00:07:47.518Z,98788.02
2019-04-07T00:10:16.674Z,98785.81
2019-04-07T00:12:45.804Z,98786.44
2019-04-07T00:15:15.578Z,98789.64
2019-04-07T00:17:44.673Z,98787.41
2019-04-07T00:20:13.870Z,98787.70
2019-04-07T00:22:42.921Z,98792.17
2019-04-07T00:25:11.978Z,98789.51
2019-04-07T00:27:41.198Z,98781.06
2019-04-07T00:30:10.542Z,98784.09
2019-04-07T00:32:39.662Z,98788.10
2019-04-07T00:35:08.889Z,98787.88
2019-04-07T00:37:38.333Z,98787.95
2019-04-07T00:40:07.646Z,98789.61
2019-04-07T00:42:36.737Z,98793.41
2019-04-07T00:45:06.309Z,98793.61
2019-04-07T00:47:35.354Z,98795.85
2019-04-07T00:50:04.750Z,98806.74
2019-04-07T00:52:33.805Z,98802.45
2019-04-07T00:55:03.437Z,98799.31
2019-04-07T00:57:32.897Z,98801.77
2019-04-07T01:00:02.855Z,98806.70
2019-04-07T01:02:32.388Z,98806.84
2019-04-07T01:05:01.749Z,98812.47
2019-04-07T01:07:30.900Z,98814.93
2019-04-07T01:10:00.736Z,98816.77
2019-04-07T01:12:30.259Z,98817.55
2019-04-07T01:14:59.628Z,98820.42
2019-04-07T01:17:29.126Z,98818.81
2019-04-07T01:19:58.660Z,98816.28
2019-04-07T01:22:27.881Z,98821.69
2019-04-07T01:24:57.646Z,98817.63
2019-04-07T01:27:27.021Z,98818.09
2019-04-07T01:29:56.423Z,98821.89
2019-04-07T01:32:25.725Z,98819.64
2019-04-07T01:34:55.068Z,98806.88
2019-04-07T01:37:24.211Z,98807.95
2019-04-07T01:39:53.843Z,98810.75
2019-04-07T01:42:41.098Z,98807.38
2019-04-07T01:45:34.406Z,98806.38
2019-04-07T01:48:17.650Z,98816.19
2019-04-07T01:51:00.614Z,98814.47
2019-04-07T01:53:56.411Z,98821.75
2019-04-07T01:56:56.389Z,98816.42
2019-04-07T01:59:44.395Z,98820.20
2019-04-07T02:02:30.208Z,98816.62
2019-04-07T02:05:27.020Z,98820.09
2019-04-07T02:08:12.142Z,98815.78
2019-04-07T02:10:55.084Z,98818.98
2019-04-07T02:13:39.331Z,98818.27
2019-04-07T02:16:42.329Z,98814.61
2019-04-07T02:19:33.777Z,98824.83
2019-04-07T02:22:13.548Z,98823.61
2019-04-07T02:25:05.466Z,98826.06
2019-04-07T02:27:56.882Z,98829.55
2019-04-07T02:30:37.440Z,98831.23
2019-04-07T02:33:28.862Z,98828.58
2019-04-07T02:36:24.785Z,98830.38
2019-04-07T02:39:00.074Z,98824.29
2019-04-07T02:41:36.032Z,98823.30
2019-04-07T02:44:25.351Z,98826.80
2019-04-07T02:47:12.484Z,98831.58
2019-04-07T02:50:15.639Z,98828.83
2019-04-07T02:53:03.877Z,98839.48
2019-04-07T02:55:47.078Z,98837.23
2019-04-07T02:58:25.510Z,98841.38
2019-04-07T03:01:14.110Z,98842.72
2019-04-07T03:04:05.143Z,98840.25
2019-04-07T03:06:54.480Z,98843.52
2019-04-07T03:09:42.778Z,98848.23
2019-04-07T03:12:30.791Z,98851.61
2019-04-07T03:15:11.758Z,98843.33
2019-04-07T03:17:57.307Z,98849.05
2019-04-07T03:20:54.614Z,98845.45
2019-04-07T03:23:51.678Z,98848.41
2019-04-07T03:26:38.369Z,98848.28
2019-04-07T03:29:16.438Z,98847.56
2019-04-07T03:32:08.491Z,98855.64
2019-04-07T03:35:00.103Z,98856.56
2019-04-07T03:37:51.507Z,98849.59
2019-04-07T03:40:30.533Z,98849.59
2019-04-07T03:43:25.383Z,98852.80
2019-04-07T03:46:12.127Z,98857.66
2019-04-07T03:48:46.007Z,98848.89
2019-04-07T03:51:37.743Z,98849.91
2019-04-07T03:54:12.197Z,98849.62
2019-04-07T03:57:00.516Z,98852.88
2019-04-07T03:59:47.235Z,98857.25
2019-04-07T04:02:39.143Z,98856.22
2019-04-07T04:05:30.206Z,98858.58
2019-04-07T04:08:09.875Z,98868.38
2019-04-07T04:10:48.502Z,98870.92
2019-04-07T04:13:45.762Z,98875.40
2019-04-07T04:16:28.666Z,98872.35
2019-04-07T04:18:59.936Z,98874.32
2019-04-07T04:21:29.208Z,98874.31
2019-04-07T04:23:59.049Z,98874.77
2019-04-07T04:26:28.976Z,98872.16
2019-04-07T04:28:58.318Z,98871.72
2019-04-07T04:31:27.473Z,98871.72
2019-04-07T04:33:56.531Z,98885.00
2019-04-07T04:36:25.580Z,98894.69
2019-04-07T04:38:55.544Z,98896.60
2019-04-07T04:41:25.225Z,98894.69
2019-04-07T04:43:54.721Z,98885.68
2019-04-07T04:46:24.101Z,98898.22
2019-04-07T04:48:53.378Z,98901.92
2019-04-07T04:51:23.928Z,98904.68
2019-04-07T04:53:53.718Z,98902.45
2019-04-07T04:56:23.002Z,98905.49
2019-04-07T04:58:53.217Z,98906.27
2019-04-07T05:01:23.009Z,98904.03
2019-04-07T05:03:52.540Z,98900.06
2019-04-07T05:06:22.119Z,98901.04
2019-04-07T05:08:51.267Z,98908.76
2019-04-07T05:11:20.327Z,98915.98
2019-04-07T05:13:50.163Z,98914.42
2019-04-07T05:16:19.786Z,98912.93
2019-04-07T05:18:49.186Z,98912.30
2019-04-07T05:21:18.558Z,98916.63
2019-04-07T05:23:48.039Z,98913.95
2019-04-07T05:26:17.732Z,98924.30
2019-04-07T05:28:47.159Z,98916.00
2019-04-07T05:31:16.239Z,98916.00
2019-04-07T05:33:45.358Z,98926.93
2019-04-07T05:36:14.786Z,98928.89
2019-04-07T05:38:44.568Z,98924.70
2019-04-07T05:41:14.158Z,98929.89
2019-04-07T05:43:43.182Z,98928.74
2019-04-07T05:46:12.667Z,98932.17
2019-04-07T05:48:42.103Z,98937.30
2019-04-07T05:51:11.158Z,98941.28
2019-04-07T05:53:44.075Z,98947.85
2019-04-07T05:56:11.127Z,98943.36
2019-04-07T05:58:41.838Z,98937.91
2019-04-07T06:01:11.797Z,98946.95
2019-04-07T06:03:42.819Z,98953.49
2019-04-07T06:06:13.478Z,98957.80
2019-04-07T06:08:42.649Z,98956.77
2019-04-07T06:11:11.663Z,98961.81
2019-04-07T06:13:43.825Z,98962.03
2019-04-07T06:16:11.767Z,98960.27
2019-04-07T06:18:41.147Z,98965.30
2019-04-07T06:21:10.256Z,98967.95
2019-04-07T06:23:39.581Z,98969.50
2019-04-07T06:26:11.194Z,98970.02
2019-04-07T06:28:40.446Z,98966.31
2019-04-07T06:31:10.105Z,98972.37
2019-04-07T06:33:39.422Z,98964.28
2019-04-07T06:36:09.316Z,98969.59
2019-04-07T06:38:43.278Z,98959.33
2019-04-07T06:41:10.445Z,98962.80
2019-04-07T06:43:40.202Z,98962.14
2019-04-07T06:46:41.376Z,98954.88
2019-04-07T06:49:35.494Z,98965.34
2019-04-07T06:52:30.270Z,98962.43
2019-04-07T06:55:33.360Z,98962.55
2019-04-07T06:58:20.831Z,98963.71
2019-04-07T07:01:14.551Z,98961.97
2019-04-07T07:04:09.359Z,98962.39
2019-04-07T07:06:57.876Z,98964.50
2019-04-07T07:09:38.709Z,98969.41
2019-04-07T07:12:23.589Z,98981.14
2019-04-07T07:15:17.951Z,98977.57
2019-04-07T07:18:06.118Z,98980.16
2019-04-07T07:21:04.055Z,98976.45
2019-04-07T07:23:36.609Z,98976.64
2019-04-07T07:26:06.046Z,98978.91
2019-04-07T07:28:35.928Z,98971.09
2019-04-07T07:31:05.983Z,98972.37
2019-04-07T07:33:38.928Z,98974.03
2019-04-07T07:36:06.051Z,98975.10
2019-04-07T07:38:35.165Z,98967.70
2019-04-07T07:41:05.114Z,98967.70
2019-04-07T07:43:34.257Z,98978.20
2019-04-07T07:46:03.264Z,98971.83
2019-04-07T07:48:32.464Z,98973.29
2019-04-07T07:51:02.409Z,98976.05
2019-04-07T07:53:31.744Z,98980.26
2019-04-07T07:56:01.079Z,98974.77
2019-04-07T07:58:32.787Z,98981.31
2019-04-07T08:01:01.526Z,98986.57
2019-04-07T08:03:31.490Z,98986.92
2019-04-07T08:06:04.832Z,98988.02
2019-04-07T08:08:33.098Z,98993.55
2019-04-07T08:11:02.808Z,98993.69
2019-04-07T08:13:32.489Z,98995.89
2019-04-07T08:16:01.987Z,99008.98
2019-04-07T08:18:31.187Z,98999.23
2019-04-07T08:21:00.192Z,99000.83
2019-04-07T08:23:29.695Z,99000.27
2019-04-07T08:25:59.132Z,98993.14
2019-04-07T08:28:28.184Z,98994.23
2019-04-07T08:30:57.524Z,98998.02
2019-04-07T08:33:28.736Z,99002.31
2019-04-07T08:35:57.960Z,99002.30
2019-04-07T08:38:28.226Z,99001.99
2019-04-07T08:40:57.682Z,99006.45
2019-04-07T08:43:27.648Z,99015.20
2019-04-07T08:45:56.785Z,99011.78
2019-04-07T08:48:25.803Z,99008.17
2019-04-07T08:50:57.243Z,99010.30
2019-04-07T08:53:25.800Z,99017.37
2019-04-07T08:55:55.261Z,99008.25
2019-04-07T08:58:27.892Z,99004.99
2019-04-07T09:00:56.142Z,99008.30
2019-04-07T09:03:25.226Z,99006.22
2019-04-07T09:05:56.588Z,99004.88
2019-04-07T09:08:25.116Z,99010.08
2019-04-07T09:11:09.099Z,99009.22
2019-04-07T09:13:38.487Z,99011.66
2019-04-07T09:16:24.636Z,99009.22
2019-04-07T09:19:10.326Z,99016.04
2019-04-07T09:21:50.450Z,99012.00
2019-04-07T09:24:56.648Z,99018.56
2019-04-07T09:27:53.970Z,99015.59
2019-04-07T09:30:33.327Z,99026.70
2019-04-07T09:33:20.134Z,99021.58
2019-04-07T09:36:06.980Z,99024.02
2019-04-07T09:38:51.305Z,99021.30
2019-04-07T09:41:48.600Z,99017.52
2019-04-07T09:44:33.996Z,99021.56
2019-04-07T09:47:24.468Z,99030.52
2019-04-07T09:50:18.558Z,99025.34
2019-04-07T09:53:08.595Z,99028.58
2019-04-07T09:55:56.856Z,99029.11
2019-04-07T09:58:42.685Z,99026.38
2019-04-07T10:01:36.451Z,99032.05
2019-04-07T10:04:14.342Z,99026.41
2019-04-07T10:06:53.235Z,99028.30
2019-04-07T10:09:35.756Z,99023.41
2019-04-07T10:12:36.170Z,99023.99
2019-04-07T10:15:15.385Z,99031.60
2019-04-07T10:18:06.582Z,99029.42
2019-04-07T10:21:00.978Z,99035.11
2019-04-07T10:23:58.697Z,99032.14
2019-04-07T10:27:02.550Z,99038.64
2019-04-07T10:29:51.385Z,99039.98
2019-04-07T10:32:58.403Z,99035.91
2019-04-07T10:35:51.342Z,99035.06
2019-04-07T10:38:26.975Z,99035.91
2019-04-07T10:41:08.452Z,99035.61
2019-04-07T10:43:55.730Z,99044.83
2019-04-07T10:46:46.013Z,99046.50
2019-04-07T10:49:32.984Z,99049.73
2019-04-07T10:52:12.993Z,99050.30
2019-04-07T10:55:13.167Z,99050.28
2019-04-07T10:57:55.200Z,99043.78
2019-04-07T11:00:48.789Z,99052.98
2019-04-07T11:03:36.272Z,99050.02
2019-04-07T11:06:27.367Z,99055.70
2019-04-07T11:09:21.220Z,99053.25
2019-04-07T11:11:57.534Z,99049.75
2019-04-07T11:14:45.625Z,99046.48
2019-04-07T11:17:48.843Z,99051.64
2019-04-07T11:20:34.498Z,99049.19
2019-04-07T11:23:21.774Z,99047.00
2019-04-07T11:26:07.157Z,99047.55
2019-04-07T11:28:44.640Z,99049.14
2019-04-07T11:31:45.021Z,99050.97
2019-04-07T11:34:25.698Z,99050.72
2019-04-07T11:37:22.201Z,99045.54
2019-04-07T11:40:10.695Z,99052.27
2019-04-07T11:42:58.902Z,99053.89
2019-04-07T11:45:56.178Z,99053.42
2019-04-07T11:48:37.178Z,99055.60
2019-04-07T11:51:26.592Z,99055.31
2019-04-07T11:54:11.558Z,99049.55
2019-04-07T11:56:57.618Z,99049.92
2019-04-07T11:59:44.763Z,99054.61
2019-04-07T12:02:24.706Z,99048.21
2019-04-07T12:05:08.227Z,99055.87
2019-04-07T12:07:55.239Z,99058.61
2019-04-07T12:10:40.159Z,99051.36
2019-04-07T12:13:31.452Z,99056.23
2019-04-07T12:16:11.110Z,99058.66
2019-04-07T12:19:11.670Z,99044.55
2019-04-07T12:21:57.891Z,99043.58
2019-04-07T12:24:52.203Z,99043.19
2019-04-07T12:27:58.335Z,99046.16
2019-04-07T12:30:44.626Z,99051.72
2019-04-07T12:33:45.061Z,99046.71
2019-04-07T12:36:36.259Z,99047.28
2019-04-07T12:39:25.637Z,99043.54
2019-04-07T12:42:23.271Z,99046.71
2019-04-07T12:45:07.967Z,99036.62
2019-04-07T12:47:55.053Z,99045.89
2019-04-07T12:51:01.982Z,99040.20
2019-04-07T12:53:53.779Z,99041.05
2019-04-07T12:56:40.794Z,99035.55
2019-04-07T12:59:32.512Z,99036.07
2019-04-07T13:02:12.441Z,99028.62
2019-04-07T13:04:48.210Z,99025.98
2019-04-07T13:07:42.414Z,99026.59
2019-04-07T13:10:20.689Z,99020.88
2019-04-07T13:13:16.996Z,99017.26
2019-04-07T13:16:05.871Z,99018.27
2019-04-07T13:18:50.533Z,99014.52
2019-04-07T13:21:39.296Z,99013.47
2019-04-07T13:24:43.727Z,99023.45
2019-04-07T13:27:23.943Z,99021.59
2019-04-07T13:30:02.832Z,99014.66
2019-04-07T13:32:43.576Z,99018.84
2019-04-07T13:35:38.246Z,99012.50
2019-04-07T13:38:29.508Z,99016.83
2019-04-07T13:41:41.673Z,99025.53
2019-04-07T13:44:26.115Z,99017.06
2019-04-07T13:47:06.331Z,99021.25
2019-04-07T13:50:10.555Z,99021.33
2019-04-07T13:52:59.019Z,99020.11
2019-04-07T13:55:52.021Z,99024.28
2019-04-07T13:58:42.989Z,99025.02
2019-04-07T14:01:20.028Z,99028.64
2019-04-07T14:04:06.866Z,99029.23
2019-04-07T14:06:56.629Z,99028.76
2019-04-07T14:09:44.104Z,99031.27
2019-04-07T14:12:45.396Z,99035.58
2019-04-07T14:15:36.995Z,99028.27
2019-04-07T14:18:24.518Z,99038.80
2019-04-07T14:21:24.662Z,99036.02
2019-04-07T14:24:25.184Z,99034.34
2019-04-07T14:27:19.693Z,99041.03
2019-04-07T14:30:17.001Z,99041.68
2019-04-07T14:33:13.666Z,99035.17
2019-04-07T14:36:13.924Z,99038.34
2019-04-07T14:39:02.305Z,99035.34
2019-04-07T14:42:03.959Z,99042.98
2019-04-07T14:44:33.659Z,99034.95
2019-04-07T14:47:14.444Z,99032.91
2019-04-07T14:50:00.553Z,99036.06
2019-04-07T14:52:41.132Z,99033.31
2019-04-07T14:55:24.802Z,99034.67
2019-04-07T14:58:18.713Z,99038.53
2019-04-07T15:01:05.782Z,99035.05
2019-04-07T15:03:33.525Z,99040.48
2019-04-07T15:06:02.893Z,99041.28
2019-04-07T15:08:36.963Z,99040.48
2019-04-07T15:11:24.956Z,99035.11
2019-04-07T15:13:56.941Z,99033.33
2019-04-07T15:16:24.912Z,99033.92
2019-04-07T15:18:55.097Z,99032.63
2019-04-07T15:21:25.324Z,99039.75
2019-04-07T15:23:54.638Z,99036.98
2019-04-07T15:26:24.669Z,99038.56
2019-04-07T15:28:53.878Z,99033.23
2019-04-07T15:31:24.878Z,99033.39
2019-04-07T15:33:54.006Z,99037.18
2019-04-07T15:36:23.261Z,99033.39
2019-04-07T15:38:55.507Z,99038.56
2019-04-07T15:41:23.387Z,99041.77
2019-04-07T15:43:54.856Z,99037.44
2019-04-07T15:46:23.670Z,99039.90
2019-04-07T15:48:55.605Z,99037.46
2019-04-07T15:51:23.876Z,99038.97
2019-04-07T15:53:56.557Z,99035.53
2019-04-07T15:56:26.028Z,99037.26
2019-04-07T15:58:58.055Z,99045.44
2019-04-07T16:01:28.033Z,99044.09
2019-04-07T16:03:57.191Z,99046.88
2019-04-07T16:06:27.934Z,99050.92
2019-04-07T16:09:01.014Z,99055.25
2019-04-07T16:11:30.591Z,99055.84
2019-04-07T16:14:02.659Z,99058.56
2019-04-07T16:16:31.891Z,99062.66
2019-04-07T16:19:01.420Z,99066.44
2019-04-07T16:21:31.022Z,99060.20
2019-04-07T16:24:00.753Z,99069.16
2019-04-07T16:26:31.115Z,99064.05
2019-04-07T16:29:01.265Z,99072.20
2019-04-07T16:31:31.133Z,99069.74
2019-04-07T16:34:00.384Z,99075.48
2019-04-07T16:36:30.336Z,99078.97
2019-04-07T16:39:01.957Z,99080.08
2019-04-07T16:41:30.402Z,99087.92
2019-04-07T16:43:59.460Z,99098.23
2019-04-07T16:46:28.516Z,99102.58
2019-04-07T16:48:58.680Z,99099.59
2019-04-07T16:51:29.690Z,99105.55
2019-04-07T16:53:58.868Z,99105.80
2019-04-07T16:56:28.683Z,99104.16
2019-04-07T16:58:58.572Z,99104.41
2019-04-07T17:01:28.449Z,99110.13
2019-04-07T17:03:59.236Z,99115.26
2019-04-07T17:06:32.733Z,99117.42
2019-04-07T17:09:00.436Z,99119.30
2019-04-07T17:11:30.107Z,99125.78
2019-04-07T17:14:02.010Z,99122.78
2019-04-07T17:16:30.168Z,99129.52
2019-04-07T17:18:59.869Z,99131.60
2019-04-07T17:21:29.907Z,99133.37
2019-04-07T17:23:59.324Z,99143.56
2019-04-07T17:26:28.441Z,99139.66
2019-04-07T17:28:58.599Z,99145.89
2019-04-07T17:31:31.839Z,99146.05
2019-04-07T17:34:00.952Z,99152.16
2019-04-07T17:36:31.352Z,99153.39
2019-04-07T17:39:14.496Z,99149.53
2019-04-07T17:41:43.740Z,99153.83
2019-04-07T17:44:24.486Z,99157.81
2019-04-07T17:47:11.941Z,99163.72
2019-04-07T17:49:59.324Z,99158.50
2019-04-07T17:52:51.248Z,99167.00
2019-04-07T17:55:38.064Z,99164.03
2019-04-07T17:58:16.169Z,99170.73
2019-04-07T18:01:11.503Z,99175.52
2019-04-07T18:04:02.646Z,99181.89
2019-04-07T18:06:49.507Z,99178.58
2019-04-07T18:09:36.093Z,99183.13
2019-04-07T18:12:19.819Z,99193.42
2019-04-07T18:15:09.877Z,99189.55
2019-04-07T18:18:01.687Z,99187.30
2019-04-07T18:20:42.323Z,99189.70
2019-04-07T18:23:30.015Z,99191.13
2019-04-07T18:26:27.425Z,99198.53
2019-04-07T18:29:06.928Z,99200.37
2019-04-07T18:31:59.855Z,99207.33
2019-04-07T18:34:52.846Z,99206.39
2019-04-07T18:37:38.699Z,99215.23
2019-04-07T18:40:43.999Z,99214.02
2019-04-07T18:43:26.680Z,99220.38
2019-04-07T18:46:07.264Z,99226.21
2019-04-07T18:48:53.173Z,99236.64
2019-04-07T18:51:31.443Z,99237.44
2019-04-07T18:54:30.789Z,99246.48
2019-04-07T18:57:19.471Z,99245.27
2019-04-07T19:00:13.388Z,99250.00
2019-04-07T19:02:57.787Z,99253.06
2019-04-07T19:05:36.807Z,99248.75
2019-04-07T19:08:25.073Z,99252.27
2019-04-07T19:11:14.940Z,99259.88
2019-04-07T19:14:20.468Z,99262.02
2019-04-07T19:16:47.856Z,99266.31
2019-04-07T19:19:42.001Z,99254.83
2019-04-07T19:22:49.114Z,99265.83
2019-04-07T19:25:37.712Z,99261.17
2019-04-07T19:28:22.030Z,99272.64
2019-04-07T19:31:03.337Z,99271.49
2019-04-07T19:33:44.998Z,99266.90
2019-04-07T19:36:42.786Z,99272.61
2019-04-07T19:39:24.994Z,99272.28
2019-04-07T19:42:12.372Z,99265.75
2019-04-07T19:45:00.475Z,99270.25
2019-04-07T19:47:54.895Z,99268.32
2019-04-07T19:50:47.509Z,99271.76
2019-04-07T19:53:33.146Z,99270.33
2019-04-07T19:56:25.152Z,99268.08
2019-04-07T19:59:10.017Z,99277.69
2019-04-07T20:02:00.490Z,99277.80
2019-04-07T20:04:42.347Z,99277.52
2019-04-07T20:07:31.220Z,99281.61
2019-04-07T20:10:16.561Z,99275.95
2019-04-07T20:13:02.540Z,99288.11
2019-04-07T20:15:50.662Z,99280.70
2019-04-07T20:18:35.366Z,99288.11
2019-04-07T20:21:39.817Z,99287.04
2019-04-07T20:24:40.170Z,99285.94
2019-04-07T20:27:22.553Z,99288.70
2019-04-07T20:30:23.632Z,99282.49
2019-04-07T20:33:14.350Z,99291.63
2019-04-07T20:35:53.610Z,99286.52
2019-04-07T20:38:40.172Z,99290.98
2019-04-07T20:41:31.554Z,99286.59
2019-04-07T20:44:19.637Z,99291.68
2019-04-07T20:47:06.650Z,99298.45
2019-04-07T20:50:07.609Z,99298.05
2019-04-07T20:53:07.202Z,99295.95
2019-04-07T20:55:39.552Z,99297.75
2019-04-07T20:58:26.954Z,99304.53
2019-04-07T21:01:20.893Z,99300.68
2019-04-07T21:04:22.151Z,99306.29
2019-04-07T21:07:20.638Z,99302.77
2019-04-07T21:09:55.523Z,99302.08
2019-04-07T21:12:45.422Z,99305.18
2019-04-07T21:15:43.161Z,99310.09
2019-04-07T21:18:40.341Z,99307.03
2019-04-07T21:21:19.258Z,99304.44
2019-04-07T21:24:10.344Z,99312.18
2019-04-07T21:26:59.339Z,99316.40
2019-04-07T21:29:44.543Z,99315.52
2019-04-07T21:32:33.214Z,99317.61
2019-04-07T21:35:34.732Z,99319.27
2019-04-07T21:38:20.873Z,99317.51
2019-04-07T21:41:16.905Z,99318.44
2019-04-07T21:44:08.038Z,99321.95
2019-04-07T21:46:54.681Z,99324.80
2019-04-07T21:49:43.958Z,99325.63
2019-04-07T21:52:24.492Z,99321.72
2019-04-07T21:55:01.671Z,99321.12
2019-04-07T21:57:59.702Z,99318.15
2019-04-07T22:00:49.052Z,99319.49
2019-04-07T22:03:40.204Z,99321.06
2019-04-07T22:06:29.454Z,99315.75
2019-04-07T22:09:19.461Z,99322.56
2019-04-07T22:11:49.487Z,99325.80
2019-04-07T22:14:18.849Z,99321.39
2019-04-07T22:16:47.955Z,99330.42
2019-04-07T22:19:17.631Z,99332.97
2019-04-07T22:21:46.803Z,99324.91
2019-04-07T22:24:15.960Z,99328.94
2019-04-07T22:26:49.177Z,99331.91
2019-04-07T22:29:16.213Z,99336.86
2019-04-07T22:31:51.491Z,99327.58
2019-04-07T22:34:20.891Z,99329.31
2019-04-07T22:36:50.009Z,99329.31
2019-04-07T22:39:19.282Z,99332.06
2019-04-07T22:41:48.486Z,99328.47
2019-04-07T22:44:19.935Z,99331.61
2019-04-07T22:46:51.251Z,99331.75
2019-04-07T22:49:19.820Z,99332.49
2019-04-07T22:51:49.821Z,99322.78
2019-04-07T22:54:19.816Z,99331.64
2019-04-07T22:56:48.884Z,99323.59
2019-04-07T22:59:17.923Z,99334.41
2019-04-07T23:01:47.362Z,99334.55
2019-04-07T23:04:16.413Z,99347.84
2019-04-07T23:06:45.677Z,99347.84
2019-04-07T23:09:15.521Z,99350.24
2019-04-07T23:11:46.134Z,99361.41
2019-04-07T23:14:15.742Z,99358.72
2019-04-07T23:16:44.806Z,99357.78
2019-04-07T23:19:14.341Z,99361.13
2019-04-07T23:21:43.351Z,99361.58
2019-04-07T23:24:12.931Z,99366.86
2019-04-07T23:26:42.570Z,99364.33
2019-04-07T23:29:12.138Z,99368.58
2019-04-07T23:31:41.791Z,99364.24
2019-04-07T23:34:10.944Z,99368.06
2019-04-07T23:36:40.017Z,99368.58
2019-04-07T23:39:09.956Z,99370.89
2019-04-07T23:41:39.453Z,99371.49
2019-04-07T23:44:09.417Z,99373.50
2019-04-07T23:46:39.342Z,99374.41
2019-04-07T23:49:08.358Z,99379.55
2019-04-07T23:51:37.394Z,99382.41
2019-04-07T23:54:10.985Z,99382.31
2019-04-07T23:56:41.998Z,99379.72
2019-04-07T23:59:11.820Z,99385.09
